Time;durP1;ratioP1;P1;durP2;ratioP2;P2;SDS_P1;SDS_P2;PMS_P1;PMS_P2;Temp;Humidity;BMP_temperature;BMP_pressure;BME280_temperature;BME280_humidity;BME280_pressure;Samples;Min_cycle;Max_cycle;Signal;HPM_P1;HPM_P2
2023/10/16 00:00:47;;;;;;;2.80;1.70;;;11.10;64.30;13.00;102208.00;;;;5009765;28;20555;-76
2023/10/16 00:03:17;;;;;;;2.30;1.60;;;11.10;64.40;13.00;102203.00;;;;5020612;28;20193;-76
2023/10/16 00:05:50;;;;;;;2.33;1.73;;;11.10;64.50;13.00;102205.00;;;;5020404;28;20197;-76
2023/10/16 00:08:17;;;;;;;2.50;1.90;;;11.00;64.40;13.00;102207.00;;;;5020881;28;20200;-76
2023/10/16 00:10:58;;;;;;;2.08;1.50;;;11.00;64.50;12.90;102209.00;;;;5018043;28;20721;-76
2023/10/16 00:13:27;;;;;;;2.22;1.70;;;11.00;64.50;12.90;102213.00;;;;5014173;28;20214;-76
2023/10/16 00:15:56;;;;;;;2.38;1.58;;;11.00;64.50;12.90;102209.00;;;;5009146;28;20216;-77
2023/10/16 00:18:31;;;;;;;2.38;1.40;;;11.00;64.50;12.90;102211.00;;;;5021228;28;20625;-76
2023/10/16 00:20:58;;;;;;;2.20;1.65;;;11.00;64.50;12.90;102214.00;;;;5009315;28;20219;-77
2023/10/16 00:23:30;;;;;;;2.55;1.92;;;11.00;64.50;12.90;102213.00;;;;5021144;28;20201;-76
2023/10/16 00:25:59;;;;;;;4.25;1.60;;;11.00;64.60;12.90;102214.00;;;;5008719;28;20679;-76
2023/10/16 00:28:26;;;;;;;2.40;1.30;;;10.90;64.50;12.90;102210.00;;;;5009593;28;20800;-76
2023/10/16 00:30:53;;;;;;;5.72;1.63;;;10.90;64.50;12.90;102213.00;;;;5019588;28;20295;-76
2023/10/16 00:33:20;;;;;;;9.35;1.60;;;11.00;64.60;12.90;102211.00;;;;5026712;28;20197;-76
2023/10/16 00:35:49;;;;;;;2.35;1.13;;;10.90;64.70;12.90;102210.00;;;;5012081;28;20235;-76
2023/10/16 00:38:19;;;;;;;2.15;1.55;;;10.90;64.70;12.90;102205.00;;;;5009046;28;20197;-76
2023/10/16 00:40:51;;;;;;;2.45;1.58;;;10.90;64.80;12.90;102208.00;;;;5014105;28;20292;-77
2023/10/16 00:43:20;;;;;;;3.00;1.40;;;11.00;64.90;12.90;102212.00;;;;5028966;28;20279;-76
2023/10/16 00:45:50;;;;;;;1.73;1.20;;;10.90;64.80;12.90;102203.00;;;;5020722;28;20272;-77
2023/10/16 00:48:19;;;;;;;2.88;1.45;;;11.00;64.90;12.90;102211.00;;;;5021961;28;20580;-77
2023/10/16 00:50:48;;;;;;;1.63;1.30;;;11.00;64.90;12.90;102208.00;;;;5011610;28;20204;-76
2023/10/16 00:53:22;;;;;;;4.25;1.70;;;11.00;64.90;12.90;102209.00;;;;5019325;28;20209;-76
2023/10/16 00:55:50;;;;;;;1.48;1.33;;;11.00;64.90;12.90;102195.00;;;;5012551;28;20720;-76
2023/10/16 00:58:19;;;;;;;1.73;1.20;;;11.00;64.90;12.90;102195.00;;;;5022196;28;20201;-76
2023/10/16 01:00:47;;;;;;;2.03;1.20;;;11.00;65.00;13.00;102196.00;;;;5017783;28;20203;-76
2023/10/16 01:03:17;;;;;;;1.88;1.30;;;11.00;65.00;13.00;102200.00;;;;5023376;28;20300;-76
2023/10/16 01:05:45;;;;;;;2.28;1.25;;;11.00;65.10;13.00;102197.00;;;;5011844;28;20247;-76
2023/10/16 01:08:13;;;;;;;1.40;1.23;;;11.00;65.10;13.00;102187.00;;;;5016048;28;20208;-76
2023/10/16 01:10:40;;;;;;;1.30;1.00;;;11.00;65.10;13.00;102192.00;;;;5021991;28;20230;-76
2023/10/16 01:13:12;;;;;;;1.42;1.05;;;11.10;65.20;13.00;102184.00;;;;5009330;28;20201;-76
2023/10/16 01:15:46;;;;;;;2.80;1.30;;;11.10;65.30;13.00;102191.00;;;;5024598;28;20208;-76
2023/10/16 01:18:15;;;;;;;5.72;1.98;;;11.10;65.30;13.00;102187.00;;;;5017469;28;20196;-77
2023/10/16 01:20:48;;;;;;;1.88;0.95;;;11.10;65.20;13.00;102185.00;;;;5009128;28;20200;-76
2023/10/16 01:23:19;;;;;;;1.75;1.20;;;11.10;65.10;13.00;102185.00;;;;5028299;28;20243;-76
2023/10/16 01:25:48;;;;;;;2.08;1.05;;;11.10;65.10;13.00;102181.00;;;;5028378;28;20200;-76
2023/10/16 01:28:16;;;;;;;2.05;1.27;;;11.10;65.00;13.00;102185.00;;;;5008140;28;20193;-76
2023/10/16 01:30:45;;;;;;;1.80;1.02;;;11.10;65.00;13.00;102180.00;;;;5019837;28;20684;-76
2023/10/16 01:33:16;;;;;;;2.92;1.23;;;11.10;65.00;13.00;102173.00;;;;5017555;28;20205;-76
2023/10/16 01:35:43;;;;;;;1.70;1.10;;;11.10;65.00;13.00;102182.00;;;;5007857;28;20197;-76
2023/10/16 01:38:16;;;;;;;5.30;1.27;;;11.00;65.10;13.00;102185.00;;;;5010088;28;20205;-76
2023/10/16 01:40:48;;;;;;;1.63;1.20;;;11.00;64.90;12.90;102184.00;;;;5008488;28;20216;-77
2023/10/16 01:43:15;;;;;;;2.10;1.25;;;11.00;64.90;13.00;102190.00;;;;5009145;28;20299;-76
2023/10/16 01:45:50;;;;;;;2.65;1.10;;;11.00;65.00;13.00;102180.00;;;;5026253;28;20211;-76
2023/10/16 01:48:20;;;;;;;1.55;1.00;;;11.10;65.10;13.00;102183.00;;;;5023370;28;20204;-76
2023/10/16 01:50:49;;;;;;;2.65;1.00;;;11.00;65.10;13.00;102181.00;;;;5012360;28;20193;-76
2023/10/16 01:53:20;;;;;;;3.70;1.17;;;11.00;65.20;13.00;102177.00;;;;5014839;28;20247;-76
2023/10/16 01:55:54;;;;;;;2.85;1.10;;;11.10;65.30;13.00;102174.00;;;;5008938;28;20275;-76
2023/10/16 01:58:23;;;;;;;1.73;0.82;;;11.00;65.30;13.00;102172.00;;;;5008984;28;20193;-76
2023/10/16 02:00:51;;;;;;;1.55;0.93;;;11.10;65.40;13.10;102170.00;;;;5012240;28;20205;-76
2023/10/16 02:03:18;;;;;;;1.77;0.95;;;11.10;65.50;13.10;102168.00;;;;5019661;28;20947;-76
2023/10/16 02:05:46;;;;;;;2.10;1.00;;;11.10;65.50;13.10;102176.00;;;;5015523;28;20195;-77
2023/10/16 02:08:15;;;;;;;1.38;1.00;;;11.10;65.60;13.10;102165.00;;;;5009343;28;20203;-76
2023/10/16 02:10:43;;;;;;;1.90;1.23;;;11.20;65.70;13.10;102166.00;;;;5012710;28;20232;-77
2023/10/16 02:13:12;;;;;;;2.05;1.30;;;11.20;65.70;13.10;102169.00;;;;5025707;28;20203;-76
2023/10/16 02:15:40;;;;;;;2.25;1.52;;;11.20;65.70;13.20;102169.00;;;;5014571;28;20193;-76
2023/10/16 02:18:14;;;;;;;3.00;1.10;;;11.20;65.70;13.20;102161.00;;;;5021469;28;20311;-77
2023/10/16 02:20:45;;;;;;;3.58;1.30;;;11.30;65.80;13.20;102170.00;;;;5008727;28;20550;-76
2023/10/16 02:23:12;;;;;;;2.10;1.40;;;11.30;65.80;13.30;102160.00;;;;5020568;28;20200;-76
2023/10/16 02:25:39;;;;;;;2.25;1.30;;;11.30;65.90;13.30;102161.00;;;;5023877;28;20193;-76
2023/10/16 02:28:07;;;;;;;3.33;1.40;;;11.30;65.80;13.30;102161.00;;;;5007802;28;20670;-76
2023/10/16 02:30:38;;;;;;;1.85;1.35;;;11.40;65.90;13.30;102154.00;;;;5011742;28;20288;-76
2023/10/16 02:33:22;;;;;;;1.40;1.13;;;11.40;65.90;13.30;102147.00;;;;5008160;28;20213;-77
2023/10/16 02:35:50;;;;;;;2.45;1.25;;;11.40;65.90;13.30;102153.00;;;;5017230;28;20193;-77
2023/10/16 02:38:27;;;;;;;1.80;1.40;;;11.40;65.90;13.40;102154.00;;;;5017643;28;20631;-76
2023/10/16 02:41:00;;;;;;;2.38;1.17;;;11.50;66.10;13.40;102153.00;;;;5011171;28;20217;-76
2023/10/16 02:43:29;;;;;;;4.13;1.58;;;11.50;66.00;13.40;102150.00;;;;5011377;28;20189;-76
2023/10/16 02:46:01;;;;;;;1.45;1.27;;;11.50;66.00;13.40;102152.00;;;;5019955;28;20204;-76
2023/10/16 02:48:29;;;;;;;1.52;1.17;;;11.50;66.60;13.40;102149.00;;;;5013739;28;20251;-76
2023/10/16 02:50:56;;;;;;;2.08;1.50;;;11.50;65.90;13.40;102149.00;;;;5011564;28;20205;-76
2023/10/16 02:53:28;;;;;;;3.22;1.80;;;11.60;65.90;13.40;102150.00;;;;5016408;28;20659;-77
2023/10/16 02:55:58;;;;;;;1.63;1.50;;;11.60;65.80;13.50;102144.00;;;;5025290;28;20219;-77
2023/10/16 02:58:27;;;;;;;1.67;1.55;;;11.60;65.80;13.50;102144.00;;;;5017496;28;20224;-76
2023/10/16 03:00:56;;;;;;;3.15;1.35;;;11.60;65.70;13.50;102147.00;;;;5013662;28;20193;-77
2023/10/16 03:03:27;;;;;;;3.05;1.58;;;11.60;65.60;13.40;102145.00;;;;5011907;28;20197;-77
2023/10/16 03:05:56;;;;;;;4.13;1.80;;;11.60;65.60;13.50;102147.00;;;;5021092;28;20197;-77
2023/10/16 03:08:29;;;;;;;2.60;1.52;;;11.60;65.70;13.50;102151.00;;;;5011820;28;20275;-77
2023/10/16 03:10:58;;;;;;;2.42;1.33;;;11.60;65.60;13.50;102156.00;;;;5010480;28;20233;-76
2023/10/16 03:13:25;;;;;;;2.10;1.38;;;11.60;65.60;13.50;102155.00;;;;5010072;28;20277;-77
2023/10/16 03:16:04;;;;;;;2.13;1.55;;;11.60;65.70;13.50;102152.00;;;;5025508;28;20257;-77
2023/10/16 03:18:33;;;;;;;3.38;1.70;;;11.60;65.70;13.50;102155.00;;;;5031488;28;20223;-77
2023/10/16 03:21:06;;;;;;;1.95;1.40;;;11.60;65.70;13.50;102148.00;;;;5027622;28;20212;-77
2023/10/16 03:23:34;;;;;;;2.33;1.48;;;11.60;65.80;13.60;102150.00;;;;5010342;28;20629;-76
2023/10/16 03:26:02;;;;;;;1.60;1.40;;;11.60;65.80;13.60;102149.00;;;;5011347;28;20255;-77
2023/10/16 03:28:29;;;;;;;2.90;1.90;;;11.60;65.80;13.60;102141.00;;;;5011258;28;20223;-76
2023/10/16 03:30:59;;;;;;;2.40;1.73;;;11.70;65.90;13.50;102139.00;;;;5014952;28;20208;-77
2023/10/16 03:33:27;;;;;;;2.35;1.90;;;11.70;66.00;13.60;102147.00;;;;5027404;28;20258;-76
2023/10/16 03:35:57;;;;;;;3.63;1.80;;;11.70;66.00;13.60;102147.00;;;;5018945;28;20204;-77
2023/10/16 03:38:35;;;;;;;2.00;1.40;;;11.70;66.10;13.60;102149.00;;;;5010779;28;20236;-76
2023/10/16 03:41:03;;;;;;;3.00;1.60;;;11.70;66.10;13.60;102148.00;;;;5012650;28;20215;-77
2023/10/16 03:43:30;;;;;;;2.65;1.95;;;11.70;66.10;13.70;102143.00;;;;5020698;28;20266;-77
2023/10/16 03:45:58;;;;;;;2.00;1.60;;;11.70;66.20;13.70;102150.00;;;;5012536;28;20193;-76
2023/10/16 03:48:25;;;;;;;2.60;1.70;;;11.70;66.20;13.70;102145.00;;;;5025251;28;20239;-77
2023/10/16 03:51:00;;;;;;;1.60;1.33;;;11.80;66.30;13.70;102147.00;;;;5015333;28;20201;-76
2023/10/16 03:53:32;;;;;;;2.97;1.67;;;11.80;66.30;13.70;102148.00;;;;5013072;28;20298;-77
2023/10/16 03:55:59;;;;;;;2.20;1.80;;;11.80;66.20;13.80;102141.00;;;;5018229;28;20287;-76
2023/10/16 03:58:26;;;;;;;1.58;1.45;;;11.90;66.20;13.80;102142.00;;;;5009667;28;20652;-76
2023/10/16 04:00:56;;;;;;;2.40;1.55;;;11.80;66.10;13.80;102141.00;;;;5011117;28;20263;-77
2023/10/16 04:03:26;;;;;;;2.88;1.83;;;11.90;66.20;13.80;102141.00;;;;5010815;28;20200;-77
2023/10/16 04:05:55;;;;;;;3.20;1.83;;;11.90;66.90;13.80;102142.00;;;;5015648;28;20212;-77
2023/10/16 04:08:23;;;;;;;4.60;1.35;;;11.90;66.20;13.80;102139.00;;;;5010061;28;20220;-76
2023/10/16 04:10:53;;;;;;;2.58;1.80;;;11.90;66.10;13.80;102136.00;;;;5018542;28;20225;-77
2023/10/16 04:13:25;;;;;;;2.65;1.65;;;11.90;66.00;13.80;102141.00;;;;5011742;28;20642;-77
2023/10/16 04:16:13;;;;;;;3.47;1.52;;;11.90;66.60;13.80;102133.00;;;;5023660;28;20200;-76
2023/10/16 04:18:41;;;;;;;1.65;1.40;;;11.90;65.90;13.80;102138.00;;;;5024905;28;20640;-77
2023/10/16 04:24:01;;;;;;;1.55;1.33;;;11.90;65.70;13.70;102131.00;;;;5013907;28;20208;-76
2023/10/16 04:26:35;;;;;;;2.50;1.60;;;11.90;65.60;13.70;102135.00;;;;5011686;28;20220;-76
2023/10/16 04:31:57;;;;;;;1.80;1.30;;;11.80;65.50;13.70;102131.00;;;;5027362;28;20331;-77
2023/10/16 04:34:31;;;;;;;2.42;1.45;;;11.80;65.50;13.60;102131.00;;;;5017023;28;20577;-76
2023/10/16 04:43:09;;;;;;;1.40;1.10;;;11.70;65.60;13.60;102112.00;;;;4983872;28;20312;-76
2023/10/16 04:48:48;;;;;;;1.98;1.60;;;11.70;65.90;13.60;102112.00;;;;4996062;28;20346;-77
2023/10/16 04:51:22;;;;;;;2.15;1.50;;;11.70;65.60;13.60;102108.00;;;;5011525;28;20251;-77
2023/10/16 04:54:13;;;;;;;2.25;1.40;;;11.70;65.70;13.60;102112.00;;;;5020318;28;20208;-76
2023/10/16 05:02:16;;;;;;;3.55;1.88;;;11.70;65.80;13.60;102109.00;;;;5013628;28;20228;-76
2023/10/16 05:04:59;;;;;;;2.63;1.45;;;11.70;65.90;13.60;102093.00;;;;5021134;28;20192;-76
2023/10/16 05:07:45;;;;;;;2.35;1.83;;;11.70;65.90;13.60;102097.00;;;;5013069;28;20584;-76
2023/10/16 05:10:18;;;;;;;2.03;1.50;;;11.70;65.90;13.60;102096.00;;;;5015778;28;20273;-76
2023/10/16 05:15:51;;;;;;;1.88;1.70;;;11.70;66.10;13.60;102086.00;;;;5013738;28;20297;-77
2023/10/16 05:18:42;;;;;;;2.38;1.88;;;11.70;66.10;13.60;102098.00;;;;5021365;28;20231;-76
2023/10/16 05:21:51;;;;;;;2.78;1.67;;;11.70;66.00;13.60;102099.00;;;;5013986;28;20609;-77
2023/10/16 06:16:20;;;;;;;3.30;2.20;;;12.00;66.60;13.80;102096.00;;;;5025524;28;20207;-76
2023/10/16 06:18:49;;;;;;;5.47;2.88;;;12.00;66.60;13.90;102094.00;;;;5014478;28;20350;-76
2023/10/16 06:21:16;;;;;;;2.58;2.10;;;12.00;66.60;13.90;102093.00;;;;5012137;28;20200;-76
2023/10/16 06:23:48;;;;;;;2.42;1.67;;;12.00;66.60;13.90;102098.00;;;;5016876;28;20243;-76
2023/10/16 06:26:15;;;;;;;4.03;2.40;;;12.10;66.70;13.90;102098.00;;;;5017905;28;20199;-76
2023/10/16 06:28:48;;;;;;;11.80;2.38;;;12.10;66.70;13.90;102094.00;;;;5013109;28;20674;-76
2023/10/16 06:31:22;;;;;;;1.80;1.63;;;12.10;66.70;13.90;102100.00;;;;5013968;28;20197;-77
2023/10/16 06:33:54;;;;;;;1.95;1.55;;;12.10;66.70;14.00;102102.00;;;;5022697;28;20256;-77
2023/10/16 06:36:23;;;;;;;4.55;2.28;;;12.10;66.70;14.00;102107.00;;;;5023751;28;20242;-76
2023/10/16 06:38:51;;;;;;;4.55;1.98;;;12.10;66.60;14.00;102105.00;;;;5018025;28;20688;-77
2023/10/16 06:41:20;;;;;;;3.47;1.83;;;12.10;66.60;14.00;102104.00;;;;5011659;28;20644;-76
2023/10/16 06:43:49;;;;;;;3.17;1.90;;;12.10;66.60;14.10;102109.00;;;;5018846;28;20554;-76
2023/10/16 06:46:23;;;;;;;3.08;1.85;;;12.20;66.70;14.10;102106.00;;;;5016254;28;20211;-76
2023/10/16 06:48:53;;;;;;;3.10;2.10;;;12.20;66.70;14.10;102107.00;;;;5011251;28;20228;-76
2023/10/16 06:51:25;;;;;;;2.72;1.73;;;12.20;66.70;14.10;102111.00;;;;5016462;28;20216;-76
2023/10/16 06:53:56;;;;;;;3.95;2.28;;;12.20;66.80;14.20;102109.00;;;;5015492;28;20211;-76
2023/10/16 06:56:31;;;;;;;2.60;1.80;;;12.30;66.90;14.20;102113.00;;;;5010729;28;20284;-76
2023/10/16 06:58:58;;;;;;;2.30;2.03;;;12.30;66.90;14.20;102117.00;;;;5011102;28;20220;-76
2023/10/16 07:01:26;;;;;;;3.28;2.03;;;12.30;66.90;14.30;102120.00;;;;5011632;28;20204;-77
2023/10/16 07:03:58;;;;;;;4.70;1.75;;;12.40;67.10;14.30;102121.00;;;;5016956;28;20204;-77
2023/10/16 07:06:32;;;;;;;2.03;1.55;;;12.40;67.10;14.30;102114.00;;;;5016708;28;20206;-77
2023/10/16 07:09:02;;;;;;;2.20;1.75;;;12.40;67.10;14.40;102122.00;;;;5017542;28;20230;-77
2023/10/16 07:11:29;;;;;;;10.18;2.22;;;12.40;67.20;14.40;102114.00;;;;5015970;28;20189;-77
2023/10/16 07:13:56;;;;;;;3.35;1.88;;;12.50;67.30;14.50;102120.00;;;;5015615;28;20655;-77
2023/10/16 07:16:23;;;;;;;2.15;1.85;;;12.50;67.40;14.50;102119.00;;;;5014832;28;20196;-78
2023/10/16 07:18:54;;;;;;;3.30;1.95;;;12.60;67.50;14.60;102114.00;;;;5013789;28;20279;-78
2023/10/16 07:21:22;;;;;;;1.83;1.63;;;12.60;67.40;14.60;102117.00;;;;5018240;28;20208;-78
2023/10/16 07:23:53;;;;;;;4.82;2.30;;;12.70;67.40;14.60;102119.00;;;;5012788;28;20566;-77
2023/10/16 07:26:24;;;;;;;2.28;1.70;;;12.70;67.40;14.70;102114.00;;;;5015374;28;20190;-77
2023/10/16 07:28:51;;;;;;;4.95;2.38;;;12.70;67.40;14.70;102113.00;;;;5014271;28;20319;-77
2023/10/16 07:31:19;;;;;;;2.83;2.30;;;12.80;67.40;14.80;102116.00;;;;5021255;28;20571;-78
2023/10/16 07:33:50;;;;;;;2.33;2.03;;;12.80;67.40;14.80;102115.00;;;;5010586;28;20205;-77
2023/10/16 07:36:17;;;;;;;2.72;2.15;;;12.90;67.50;14.90;102126.00;;;;5013278;28;20282;-77
2023/10/16 07:38:48;;;;;;;2.72;2.50;;;12.90;67.50;14.90;102129.00;;;;5021401;28;20221;-77
2023/10/16 07:41:18;;;;;;;4.07;2.53;;;13.00;67.50;14.90;102130.00;;;;5024098;28;20213;-77
2023/10/16 07:43:46;;;;;;;4.32;2.42;;;13.00;67.50;15.00;102132.00;;;;5017885;28;20610;-77
2023/10/16 07:46:29;;;;;;;2.92;2.33;;;13.10;67.50;15.00;102134.00;;;;5014090;28;20665;-76
2023/10/16 07:48:57;;;;;;;10.07;2.30;;;13.10;67.60;15.10;102117.00;;;;5012562;28;20625;-77
2023/10/16 07:51:26;;;;;;;3.13;1.90;;;13.20;67.60;15.10;102128.00;;;;5017808;28;20205;-76
2023/10/16 07:53:56;;;;;;;3.40;1.95;;;13.20;67.50;15.10;102118.00;;;;5010582;28;20205;-77
2023/10/16 07:56:28;;;;;;;2.83;1.98;;;13.20;67.50;15.20;102117.00;;;;5010192;28;20589;-76
2023/10/16 07:59:06;;;;;;;3.05;1.83;;;13.30;67.60;15.30;102119.00;;;;5012786;28;20232;-76
2023/10/16 08:01:41;;;;;;;2.65;2.30;;;13.30;67.60;15.30;102121.00;;;;5014319;28;20189;-76
2023/10/16 08:04:35;;;;;;;2.22;1.90;;;13.40;67.70;15.40;102117.00;;;;5017938;28;20207;-76
2023/10/16 08:07:16;;;;;;;2.75;2.40;;;13.50;67.80;15.40;102118.00;;;;5021671;28;21063;-76
2023/10/16 08:09:57;;;;;;;2.97;2.17;;;13.50;67.80;15.50;102130.00;;;;5013827;28;20675;-76
2023/10/16 08:12:36;;;;;;;2.85;2.03;;;13.60;67.90;15.60;102120.00;;;;5015710;28;20207;-76
2023/10/16 08:15:14;;;;;;;2.28;1.67;;;13.60;67.90;15.60;102134.00;;;;5019772;28;20605;-76
2023/10/16 08:17:43;;;;;;;3.67;2.15;;;13.70;67.90;15.70;102126.00;;;;5016391;28;20193;-76
2023/10/16 08:20:17;;;;;;;2.97;1.88;;;13.70;67.80;15.70;102132.00;;;;5007733;28;20204;-76
2023/10/16 08:22:46;;;;;;;2.72;1.90;;;13.80;68.60;15.80;102127.00;;;;5017692;28;20193;-76
2023/10/16 08:25:30;;;;;;;3.33;2.38;;;13.90;68.00;15.80;102122.00;;;;5012450;28;20216;-76
2023/10/16 08:28:00;;;;;;;2.47;1.80;;;13.90;67.90;15.90;102129.00;;;;5012807;28;20239;-77
2023/10/16 08:30:49;;;;;;;5.47;1.80;;;14.00;68.00;16.00;102131.00;;;;5009578;28;20246;-76
2023/10/16 08:33:17;;;;;;;2.25;2.05;;;14.00;67.90;16.00;102119.00;;;;5010621;28;20201;-76
2023/10/16 08:35:45;;;;;;;3.45;1.95;;;14.10;68.00;16.10;102132.00;;;;5015762;28;20196;-76
2023/10/16 08:38:14;;;;;;;2.60;2.03;;;14.20;68.00;16.20;102137.00;;;;5011405;28;20593;-76
2023/10/16 08:40:44;;;;;;;2.17;1.83;;;14.20;68.10;16.20;102139.00;;;;5009692;28;20560;-75
2023/10/16 08:43:17;;;;;;;5.65;1.83;;;14.30;68.00;16.30;102136.00;;;;5017376;28;20259;-77
2023/10/16 08:45:48;;;;;;;2.58;1.80;;;14.40;68.00;16.30;102133.00;;;;5017374;28;20296;-77
2023/10/16 08:48:18;;;;;;;3.03;1.92;;;14.40;67.90;16.40;102135.00;;;;5026691;28;20200;-77
2023/10/16 08:50:57;;;;;;;4.22;1.85;;;14.50;67.90;16.40;102135.00;;;;5021619;28;20238;-77
2023/10/16 08:53:33;;;;;;;3.45;1.70;;;14.60;67.80;16.50;102136.00;;;;5021909;28;20263;-77
2023/10/16 08:56:07;;;;;;;7.20;2.03;;;14.60;67.70;16.50;102141.00;;;;5017386;28;20199;-77
2023/10/16 08:58:39;;;;;;;2.33;1.60;;;14.70;67.70;16.60;102134.00;;;;5017917;28;20220;-77
2023/10/16 09:01:08;;;;;;;3.30;1.55;;;14.70;67.80;16.70;102138.00;;;;5009914;28;20204;-77
2023/10/16 09:03:46;;;;;;;2.17;1.55;;;14.80;67.80;16.70;102132.00;;;;5010272;28;20209;-76
2023/10/16 09:06:22;;;;;;;3.05;1.80;;;14.90;67.80;16.80;102134.00;;;;5014713;28;20203;-76
2023/10/16 09:08:49;;;;;;;3.97;2.53;;;14.90;67.70;16.90;102132.00;;;;5015529;28;20228;-77
2023/10/16 09:11:19;;;;;;;5.55;1.88;;;15.00;67.70;17.00;102125.00;;;;5021527;28;20236;-77
2023/10/16 09:13:50;;;;;;;3.97;1.58;;;15.10;67.60;17.10;102126.00;;;;5021865;28;20200;-77
2023/10/16 09:16:21;;;;;;;2.03;1.13;;;15.10;67.50;17.10;102119.00;;;;5027206;28;20208;-76
2023/10/16 09:18:48;;;;;;;2.42;1.83;;;15.20;67.40;17.20;102119.00;;;;5009273;28;20315;-76
2023/10/16 09:21:22;;;;;;;2.42;1.25;;;15.30;67.40;17.30;102125.00;;;;5010040;28;20216;-76
2023/10/16 09:23:52;;;;;;;2.38;1.40;;;15.40;67.50;17.40;102117.00;;;;5012408;28;20706;-76
2023/10/16 09:26:23;;;;;;;2.65;1.20;;;15.50;67.40;17.40;102119.00;;;;5014898;28;20184;-76
2023/10/16 09:28:53;;;;;;;1.88;1.17;;;15.50;67.30;17.50;102132.00;;;;5008640;28;20302;-77
2023/10/16 09:31:21;;;;;;;3.25;1.13;;;15.60;67.30;17.60;102135.00;;;;5017996;28;20246;-76
2023/10/16 09:33:49;;;;;;;1.63;0.82;;;15.70;67.20;17.70;102133.00;;;;5013617;28;20204;-76
2023/10/16 09:36:21;;;;;;;1.85;0.90;;;15.80;67.10;17.80;102137.00;;;;5012226;28;20196;-76
2023/10/16 09:38:52;;;;;;;3.92;0.80;;;15.90;66.90;17.90;102131.00;;;;5008789;28;20217;-76
2023/10/16 09:44:09;;;;;;;1.48;0.90;;;16.10;66.80;18.00;102134.00;;;;5015555;28;20210;-77
2023/10/16 09:46:56;;;;;;;1.38;0.80;;;16.10;66.40;18.10;102141.00;;;;5012971;28;20211;-77
2023/10/16 09:49:24;;;;;;;3.25;1.02;;;16.30;66.40;18.10;102141.00;;;;5016987;28;21031;-77
2023/10/16 09:51:57;;;;;;;2.90;0.90;;;16.30;66.40;18.20;102142.00;;;;5008056;28;20279;-76
2023/10/16 09:54:27;;;;;;;1.98;0.70;;;16.30;66.10;18.20;102142.00;;;;5020077;28;20266;-76
2023/10/16 09:57:02;;;;;;;1.02;0.68;;;16.40;65.80;18.30;102142.00;;;;5016551;28;20698;-76
2023/10/16 09:59:38;;;;;;;1.00;0.63;;;16.50;65.80;18.30;102135.00;;;;5009715;28;20230;-76
2023/10/16 10:02:08;;;;;;;1.42;0.82;;;16.60;65.90;18.40;102147.00;;;;5015252;28;20589;-76
2023/10/16 10:04:38;;;;;;;2.35;0.68;;;16.60;65.60;18.50;102144.00;;;;5009560;28;20774;-76
2023/10/16 10:07:19;;;;;;;1.40;0.80;;;16.70;65.50;18.50;102141.00;;;;5017311;28;20219;-76
2023/10/16 10:09:53;;;;;;;3.20;0.68;;;16.70;65.30;18.60;102141.00;;;;5008516;28;20231;-76
2023/10/16 10:12:37;;;;;;;0.70;0.60;;;16.80;65.30;18.50;102141.00;;;;5019233;28;20201;-77
2023/10/16 10:15:16;;;;;;;3.55;0.90;;;16.80;65.00;18.60;102129.00;;;;5007490;28;20275;-76
2023/10/16 10:17:46;;;;;;;1.65;0.98;;;16.80;65.00;18.70;102133.00;;;;5023351;28;21010;-76
2023/10/16 10:20:23;;;;;;;2.25;0.95;;;16.90;65.00;18.70;102132.00;;;;5010544;28;20212;-76
2023/10/16 10:22:54;;;;;;;1.63;0.85;;;16.90;64.80;18.80;102137.00;;;;5017691;28;20202;-76
2023/10/16 10:25:37;;;;;;;2.65;0.90;;;16.90;64.90;18.70;102131.00;;;;5011643;28;20205;-76
2023/10/16 10:28:16;;;;;;;2.72;1.23;;;17.00;64.80;18.80;102138.00;;;;5007088;28;20237;-76
2023/10/16 10:30:45;;;;;;;1.52;0.70;;;17.00;65.00;18.90;102136.00;;;;5012855;28;20236;-76
2023/10/16 10:33:14;;;;;;;0.80;0.30;;;17.00;65.00;18.90;102135.00;;;;5020986;28;20206;-75
2023/10/16 10:35:43;;;;;;;2.53;0.70;;;17.10;65.10;19.00;102129.00;;;;5007116;28;20682;-76
2023/10/16 10:38:21;;;;;;;1.33;0.50;;;17.10;65.10;19.00;102133.00;;;;5007185;28;20212;-76
2023/10/16 10:41:15;;;;;;;2.47;0.60;;;17.20;65.00;19.00;102130.00;;;;5010399;28;20219;-75
2023/10/16 10:43:47;;;;;;;1.17;0.70;;;17.20;64.30;19.10;102125.00;;;;5017546;28;20197;-76
2023/10/16 10:46:23;;;;;;;1.25;0.77;;;17.30;64.60;19.20;102125.00;;;;5011425;28;20197;-75
2023/10/16 10:48:54;;;;;;;2.17;0.80;;;17.30;64.50;19.30;102134.00;;;;5009387;28;20201;-76
2023/10/16 10:51:22;;;;;;;2.28;0.95;;;17.40;64.60;19.40;102126.00;;;;5017295;28;20227;-76
2023/10/16 10:53:56;;;;;;;2.97;0.73;;;17.50;64.50;19.40;102130.00;;;;5010448;28;20279;-77
2023/10/16 10:56:29;;;;;;;1.23;0.50;;;17.50;64.10;19.50;102128.00;;;;5016662;28;20738;-76
2023/10/16 10:59:04;;;;;;;2.30;0.50;;;17.60;64.40;19.60;102126.00;;;;5007467;28;20216;-76
2023/10/16 11:01:34;;;;;;;1.77;0.20;;;17.70;64.10;19.70;102122.00;;;;5016099;28;20204;-74
2023/10/16 11:04:09;;;;;;;2.15;0.40;;;17.80;63.70;19.80;102119.00;;;;5011412;28;20205;-75
2023/10/16 11:06:42;;;;;;;1.70;0.40;;;17.90;63.60;19.90;102127.00;;;;5010985;28;20287;-74
2023/10/16 11:09:18;;;;;;;1.08;0.20;;;17.90;63.40;19.90;102118.00;;;;5009784;28;20197;-75
2023/10/16 11:11:47;;;;;;;0.90;0.30;;;18.00;63.20;20.00;102126.00;;;;5010904;28;20278;-76
2023/10/16 11:14:16;;;;;;;0.70;0.30;;;18.10;63.20;20.00;102121.00;;;;5023712;28;20624;-76
2023/10/16 11:16:45;;;;;;;0.73;0.40;;;18.10;63.00;20.10;102126.00;;;;5009326;28;21893;-76
2023/10/16 11:19:18;;;;;;;0.88;0.20;;;18.20;62.70;20.10;102127.00;;;;5009230;28;20718;-76
2023/10/16 11:21:47;;;;;;;1.58;0.47;;;18.30;62.30;20.10;102114.00;;;;5022805;28;20574;-75
2023/10/16 11:24:14;;;;;;;2.35;0.43;;;18.30;62.10;20.10;102117.00;;;;5009598;28;20292;-75
2023/10/16 11:26:45;;;;;;;1.13;0.22;;;18.30;62.00;20.10;102112.00;;;;5020579;28;20207;-76
2023/10/16 11:29:14;;;;;;;2.33;0.40;;;18.30;61.70;20.20;102111.00;;;;5016675;28;20196;-76
2023/10/16 11:31:44;;;;;;;1.27;0.25;;;18.30;61.60;20.20;102114.00;;;;5019045;28;20232;-76
2023/10/16 11:34:14;;;;;;;1.35;0.20;;;18.30;61.40;20.20;102108.00;;;;5009515;28;20731;-76
2023/10/16 11:36:42;;;;;;;1.17;0.28;;;18.30;61.40;20.20;102108.00;;;;5011285;28;20193;-76
2023/10/16 11:39:10;;;;;;;1.65;0.30;;;18.40;61.30;20.20;102106.00;;;;5019815;28;20220;-76
2023/10/16 11:41:38;;;;;;;1.35;0.15;;;18.30;61.10;20.20;102095.00;;;;5030086;28;20204;-76
2023/10/16 11:44:14;;;;;;;3.65;0.65;;;18.40;60.90;20.20;102095.00;;;;5017122;28;20200;-76
2023/10/16 11:46:46;;;;;;;0.57;0.22;;;18.40;60.70;20.10;102096.00;;;;5011193;28;20662;-76
2023/10/16 11:49:22;;;;;;;0.93;0.43;;;18.40;60.50;20.10;102087.00;;;;5019511;28;20197;-76
2023/10/16 11:51:51;;;;;;;0.30;0.20;;;18.40;60.40;20.10;102080.00;;;;5013150;28;20189;-76
2023/10/16 11:54:20;;;;;;;0.52;0.10;;;18.30;60.30;20.10;102088.00;;;;5019849;28;20200;-77
2023/10/16 11:56:50;;;;;;;1.35;0.40;;;18.40;60.30;20.10;102082.00;;;;5029263;28;20254;-76
2023/10/16 11:59:19;;;;;;;2.17;0.32;;;18.30;60.30;20.10;102082.00;;;;5011907;28;20275;-76
2023/10/16 12:01:50;;;;;;;0.52;0.40;;;18.30;60.40;20.10;102077.00;;;;5010981;28;20200;-76
2023/10/16 12:04:19;;;;;;;0.70;0.20;;;18.30;60.50;20.20;102080.00;;;;5010457;28;20624;-76
2023/10/16 12:06:48;;;;;;;0.77;0.20;;;18.40;60.40;20.20;102075.00;;;;5010628;28;20201;-76
2023/10/16 12:09:19;;;;;;;1.75;0.45;;;18.40;60.50;20.30;102064.00;;;;5009668;28;20197;-77
2023/10/16 12:11:48;;;;;;;1.63;0.52;;;18.50;60.40;20.30;102068.00;;;;5009407;28;20265;-77
2023/10/16 12:14:15;;;;;;;3.85;0.65;;;18.50;60.40;20.40;102062.00;;;;5011132;28;20567;-77
2023/10/16 12:16:45;;;;;;;0.93;0.45;;;18.50;60.10;20.40;102069.00;;;;5018327;28;20193;-76
2023/10/16 12:19:14;;;;;;;0.95;0.30;;;18.60;60.20;20.40;102056.00;;;;5015370;28;20315;-77
2023/10/16 12:21:41;;;;;;;1.02;0.40;;;18.60;60.10;20.50;102066.00;;;;5021852;28;20232;-77
2023/10/16 12:24:10;;;;;;;0.77;0.25;;;18.70;60.00;20.50;102060.00;;;;5015728;28;20624;-77